sensor_id;sensor_type;location;lat;lon;timestamp;P1;durP1;ratioP1;P2;durP2;ratioP2
69789;SDS011;57064;52.046;4.800;2022-07-21T00:01:09;12.38;;;7.65;;
69789;SDS011;57064;52.046;4.800;2022-07-21T00:03:36;10.57;;;7.35;;
69789;SDS011;57064;52.046;4.800;2022-07-21T00:06:02;11.00;;;7.85;;
69789;SDS011;57064;52.046;4.800;2022-07-21T00:08:29;11.82;;;7.68;;
69789;SDS011;57064;52.046;4.800;2022-07-21T00:10:55;12.80;;;8.38;;
69789;SDS011;57064;52.046;4.800;2022-07-21T00:13:21;11.07;;;8.13;;
69789;SDS011;57064;52.046;4.800;2022-07-21T00:15:48;12.98;;;8.80;;
69789;SDS011;57064;52.046;4.800;2022-07-21T00:18:15;11.68;;;8.98;;
69789;SDS011;57064;52.046;4.800;2022-07-21T00:20:42;16.63;;;9.05;;
69789;SDS011;57064;52.046;4.800;2022-07-21T00:23:08;13.90;;;9.48;;
69789;SDS011;57064;52.046;4.800;2022-07-21T00:25:34;15.60;;;8.95;;
69789;SDS011;57064;52.046;4.800;2022-07-21T00:28:03;12.02;;;8.68;;
69789;SDS011;57064;52.046;4.800;2022-07-21T00:30:30;14.63;;;9.65;;
69789;SDS011;57064;52.046;4.800;2022-07-21T00:32:57;12.65;;;9.43;;
69789;SDS011;57064;52.046;4.800;2022-07-21T00:35:23;13.68;;;9.63;;
69789;SDS011;57064;52.046;4.800;2022-07-21T00:37:49;13.30;;;9.82;;
69789;SDS011;57064;52.046;4.800;2022-07-21T00:40:15;14.07;;;9.82;;
69789;SDS011;57064;52.046;4.800;2022-07-21T00:42:41;15.80;;;10.25;;
69789;SDS011;57064;52.046;4.800;2022-07-21T00:45:08;15.20;;;10.63;;
69789;SDS011;57064;52.046;4.800;2022-07-21T00:47:35;18.30;;;10.32;;
69789;SDS011;57064;52.046;4.800;2022-07-21T00:50:04;17.30;;;10.20;;
69789;SDS011;57064;52.046;4.800;2022-07-21T00:55:00;14.68;;;9.55;;
69789;SDS011;57064;52.046;4.800;2022-07-21T00:57:27;14.85;;;10.00;;
69789;SDS011;57064;52.046;4.800;2022-07-21T00:59:53;19.17;;;10.45;;
69789;SDS011;57064;52.046;4.800;2022-07-21T01:02:19;16.83;;;10.85;;
69789;SDS011;57064;52.046;4.800;2022-07-21T01:04:45;16.65;;;10.63;;
69789;SDS011;57064;52.046;4.800;2022-07-21T01:07:11;18.25;;;11.25;;
69789;SDS011;57064;52.046;4.800;2022-07-21T01:09:38;17.92;;;11.23;;
69789;SDS011;57064;52.046;4.800;2022-07-21T01:12:04;17.58;;;11.20;;
69789;SDS011;57064;52.046;4.800;2022-07-21T01:14:31;20.67;;;11.60;;
69789;SDS011;57064;52.046;4.800;2022-07-21T01:16:58;18.65;;;12.32;;
69789;SDS011;57064;52.046;4.800;2022-07-21T01:19:25;15.18;;;11.38;;
69789;SDS011;57064;52.046;4.800;2022-07-21T01:21:52;20.48;;;13.15;;
69789;SDS011;57064;52.046;4.800;2022-07-21T01:24:18;20.42;;;13.27;;
69789;SDS011;57064;52.046;4.800;2022-07-21T01:26:46;20.70;;;13.85;;
69789;SDS011;57064;52.046;4.800;2022-07-21T01:29:13;21.38;;;13.23;;
69789;SDS011;57064;52.046;4.800;2022-07-21T01:31:40;19.13;;;13.10;;
69789;SDS011;57064;52.046;4.800;2022-07-21T01:34:08;23.42;;;13.32;;
69789;SDS011;57064;52.046;4.800;2022-07-21T01:36:35;21.67;;;13.27;;
69789;SDS011;57064;52.046;4.800;2022-07-21T01:39:02;20.63;;;13.70;;
69789;SDS011;57064;52.046;4.800;2022-07-21T01:41:48;21.73;;;13.35;;
69789;SDS011;57064;52.046;4.800;2022-07-21T01:44:14;20.75;;;13.95;;
69789;SDS011;57064;52.046;4.800;2022-07-21T01:46:42;19.17;;;12.95;;
69789;SDS011;57064;52.046;4.800;2022-07-21T01:49:10;21.13;;;13.95;;
69789;SDS011;57064;52.046;4.800;2022-07-21T01:51:38;24.83;;;14.25;;
69789;SDS011;57064;52.046;4.800;2022-07-21T01:54:04;20.98;;;14.38;;
69789;SDS011;57064;52.046;4.800;2022-07-21T01:56:32;19.13;;;12.95;;
69789;SDS011;57064;52.046;4.800;2022-07-21T01:58:59;19.83;;;13.80;;
69789;SDS011;57064;52.046;4.800;2022-07-21T02:01:26;21.55;;;14.02;;
69789;SDS011;57064;52.046;4.800;2022-07-21T02:03:54;23.25;;;14.38;;
69789;SDS011;57064;52.046;4.800;2022-07-21T02:06:21;22.23;;;14.40;;
69789;SDS011;57064;52.046;4.800;2022-07-21T02:08:47;23.20;;;15.35;;
69789;SDS011;57064;52.046;4.800;2022-07-21T02:11:14;22.80;;;14.77;;
69789;SDS011;57064;52.046;4.800;2022-07-21T02:13:41;23.63;;;14.60;;
69789;SDS011;57064;52.046;4.800;2022-07-21T02:16:07;26.77;;;16.00;;
69789;SDS011;57064;52.046;4.800;2022-07-21T02:18:34;25.65;;;16.25;;
69789;SDS011;57064;52.046;4.800;2022-07-21T02:21:01;26.23;;;15.63;;
69789;SDS011;57064;52.046;4.800;2022-07-21T02:23:27;23.80;;;15.15;;
69789;SDS011;57064;52.046;4.800;2022-07-21T02:25:53;25.77;;;16.33;;
69789;SDS011;57064;52.046;4.800;2022-07-21T02:28:20;23.13;;;16.02;;
69789;SDS011;57064;52.046;4.800;2022-07-21T02:30:46;24.50;;;15.48;;
69789;SDS011;57064;52.046;4.800;2022-07-21T02:33:13;24.15;;;15.32;;
69789;SDS011;57064;52.046;4.800;2022-07-21T02:35:40;28.27;;;17.13;;
69789;SDS011;57064;52.046;4.800;2022-07-21T02:38:06;29.95;;;15.82;;
69789;SDS011;57064;52.046;4.800;2022-07-21T02:40:32;25.83;;;16.83;;
69789;SDS011;57064;52.046;4.800;2022-07-21T02:42:59;26.17;;;16.02;;
69789;SDS011;57064;52.046;4.800;2022-07-21T02:45:26;25.33;;;16.65;;
69789;SDS011;57064;52.046;4.800;2022-07-21T02:50:20;24.83;;;16.75;;
69789;SDS011;57064;52.046;4.800;2022-07-21T02:52:48;25.80;;;15.55;;
69789;SDS011;57064;52.046;4.800;2022-07-21T02:55:14;28.10;;;16.83;;
69789;SDS011;57064;52.046;4.800;2022-07-21T02:57:41;26.55;;;16.23;;
69789;SDS011;57064;52.046;4.800;2022-07-21T03:00:08;27.67;;;17.02;;
69789;SDS011;57064;52.046;4.800;2022-07-21T03:02:35;27.33;;;16.95;;
69789;SDS011;57064;52.046;4.800;2022-07-21T03:05:01;27.20;;;16.33;;
69789;SDS011;57064;52.046;4.800;2022-07-21T03:07:29;25.25;;;15.57;;
69789;SDS011;57064;52.046;4.800;2022-07-21T03:09:55;25.65;;;15.75;;
69789;SDS011;57064;52.046;4.800;2022-07-21T03:12:21;25.30;;;16.67;;
69789;SDS011;57064;52.046;4.800;2022-07-21T03:14:47;23.10;;;16.15;;
69789;SDS011;57064;52.046;4.800;2022-07-21T03:17:13;28.23;;;16.50;;
69789;SDS011;57064;52.046;4.800;2022-07-21T03:19:39;26.17;;;16.95;;
69789;SDS011;57064;52.046;4.800;2022-07-21T03:22:05;27.23;;;16.23;;
69789;SDS011;57064;52.046;4.800;2022-07-21T03:24:31;28.50;;;17.40;;
69789;SDS011;57064;52.046;4.800;2022-07-21T03:26:57;30.77;;;16.77;;
69789;SDS011;57064;52.046;4.800;2022-07-21T03:29:23;29.92;;;17.60;;
69789;SDS011;57064;52.046;4.800;2022-07-21T03:31:49;29.75;;;17.67;;
69789;SDS011;57064;52.046;4.800;2022-07-21T03:34:15;31.83;;;17.25;;
69789;SDS011;57064;52.046;4.800;2022-07-21T03:36:41;28.13;;;17.25;;
69789;SDS011;57064;52.046;4.800;2022-07-21T03:39:08;30.75;;;17.50;;
69789;SDS011;57064;52.046;4.800;2022-07-21T03:41:34;28.20;;;16.98;;
69789;SDS011;57064;52.046;4.800;2022-07-21T03:44:00;27.75;;;17.95;;
69789;SDS011;57064;52.046;4.800;2022-07-21T03:46:26;29.73;;;17.92;;
69789;SDS011;57064;52.046;4.800;2022-07-21T03:48:52;29.42;;;18.02;;
69789;SDS011;57064;52.046;4.800;2022-07-21T03:51:18;28.63;;;17.23;;
69789;SDS011;57064;52.046;4.800;2022-07-21T03:53:44;29.25;;;18.65;;
69789;SDS011;57064;52.046;4.800;2022-07-21T03:56:10;32.38;;;18.05;;
69789;SDS011;57064;52.046;4.800;2022-07-21T03:58:36;34.20;;;18.85;;
69789;SDS011;57064;52.046;4.800;2022-07-21T04:01:02;29.50;;;18.00;;
69789;SDS011;57064;52.046;4.800;2022-07-21T04:03:28;34.47;;;18.98;;
69789;SDS011;57064;52.046;4.800;2022-07-21T04:05:55;30.63;;;17.38;;
69789;SDS011;57064;52.046;4.800;2022-07-21T04:08:21;30.45;;;18.92;;
69789;SDS011;57064;52.046;4.800;2022-07-21T04:10:47;32.22;;;19.17;;
69789;SDS011;57064;52.046;4.800;2022-07-21T04:13:13;29.23;;;17.98;;
69789;SDS011;57064;52.046;4.800;2022-07-21T04:15:40;31.77;;;19.55;;
69789;SDS011;57064;52.046;4.800;2022-07-21T04:18:06;34.20;;;18.75;;
69789;SDS011;57064;52.046;4.800;2022-07-21T04:20:33;33.30;;;18.73;;
69789;SDS011;57064;52.046;4.800;2022-07-21T04:22:59;31.67;;;19.00;;
69789;SDS011;57064;52.046;4.800;2022-07-21T04:25:26;33.05;;;19.00;;
69789;SDS011;57064;52.046;4.800;2022-07-21T04:27:52;35.72;;;20.23;;
69789;SDS011;57064;52.046;4.800;2022-07-21T04:30:20;35.90;;;20.67;;
69789;SDS011;57064;52.046;4.800;2022-07-21T04:32:47;33.03;;;19.48;;
69789;SDS011;57064;52.046;4.800;2022-07-21T04:35:14;31.17;;;18.88;;
69789;SDS011;57064;52.046;4.800;2022-07-21T04:37:40;34.15;;;18.10;;
69789;SDS011;57064;52.046;4.800;2022-07-21T04:40:07;33.08;;;19.50;;
69789;SDS011;57064;52.046;4.800;2022-07-21T04:42:35;33.15;;;18.05;;
69789;SDS011;57064;52.046;4.800;2022-07-21T04:45:02;36.25;;;20.42;;
69789;SDS011;57064;52.046;4.800;2022-07-21T04:47:29;33.78;;;19.27;;
69789;SDS011;57064;52.046;4.800;2022-07-21T04:49:55;31.27;;;18.65;;
69789;SDS011;57064;52.046;4.800;2022-07-21T04:52:21;35.08;;;18.05;;
69789;SDS011;57064;52.046;4.800;2022-07-21T04:54:49;35.08;;;19.20;;
69789;SDS011;57064;52.046;4.800;2022-07-21T04:57:15;34.08;;;19.60;;
69789;SDS011;57064;52.046;4.800;2022-07-21T04:59:41;33.95;;;18.30;;
69789;SDS011;57064;52.046;4.800;2022-07-21T05:02:07;33.30;;;18.00;;
69789;SDS011;57064;52.046;4.800;2022-07-21T05:04:33;34.38;;;17.85;;
69789;SDS011;57064;52.046;4.800;2022-07-21T05:06:59;28.80;;;16.70;;
69789;SDS011;57064;52.046;4.800;2022-07-21T05:09:25;31.75;;;17.55;;
69789;SDS011;57064;52.046;4.800;2022-07-21T05:11:51;35.28;;;16.60;;
69789;SDS011;57064;52.046;4.800;2022-07-21T05:14:17;30.17;;;17.10;;
69789;SDS011;57064;52.046;4.800;2022-07-21T05:16:44;29.77;;;17.38;;
69789;SDS011;57064;52.046;4.800;2022-07-21T05:19:10;28.98;;;17.50;;
69789;SDS011;57064;52.046;4.800;2022-07-21T05:21:36;28.15;;;16.52;;
69789;SDS011;57064;52.046;4.800;2022-07-21T05:24:02;35.97;;;17.70;;
69789;SDS011;57064;52.046;4.800;2022-07-21T05:26:28;36.08;;;16.58;;
69789;SDS011;57064;52.046;4.800;2022-07-21T05:28:54;31.17;;;16.75;;
69789;SDS011;57064;52.046;4.800;2022-07-21T05:31:21;34.42;;;16.92;;
69789;SDS011;57064;52.046;4.800;2022-07-21T05:33:48;28.48;;;16.40;;
69789;SDS011;57064;52.046;4.800;2022-07-21T05:36:14;31.67;;;17.20;;
69789;SDS011;57064;52.046;4.800;2022-07-21T05:38:40;31.63;;;18.13;;
69789;SDS011;57064;52.046;4.800;2022-07-21T05:41:06;32.90;;;18.02;;
69789;SDS011;57064;52.046;4.800;2022-07-21T05:43:32;36.60;;;19.40;;
69789;SDS011;57064;52.046;4.800;2022-07-21T05:45:58;43.17;;;19.85;;
69789;SDS011;57064;52.046;4.800;2022-07-21T05:48:24;36.15;;;18.88;;
69789;SDS011;57064;52.046;4.800;2022-07-21T05:50:50;35.90;;;18.33;;
69789;SDS011;57064;52.046;4.800;2022-07-21T05:53:16;39.72;;;19.20;;
69789;SDS011;57064;52.046;4.800;2022-07-21T05:55:43;35.20;;;18.50;;
69789;SDS011;57064;52.046;4.800;2022-07-21T05:58:09;39.28;;;19.75;;
69789;SDS011;57064;52.046;4.800;2022-07-21T06:00:37;34.80;;;19.35;;
69789;SDS011;57064;52.046;4.800;2022-07-21T06:03:03;38.58;;;18.55;;
69789;SDS011;57064;52.046;4.800;2022-07-21T06:05:29;37.50;;;19.23;;
69789;SDS011;57064;52.046;4.800;2022-07-21T06:07:55;35.63;;;19.33;;
69789;SDS011;57064;52.046;4.800;2022-07-21T06:10:21;38.78;;;18.40;;
69789;SDS011;57064;52.046;4.800;2022-07-21T06:12:47;46.10;;;20.73;;
69789;SDS011;57064;52.046;4.800;2022-07-21T06:15:13;34.60;;;19.13;;
69789;SDS011;57064;52.046;4.800;2022-07-21T06:17:40;37.65;;;18.80;;
69789;SDS011;57064;52.046;4.800;2022-07-21T06:20:08;38.95;;;19.75;;
69789;SDS011;57064;52.046;4.800;2022-07-21T06:22:35;29.90;;;18.05;;
69789;SDS011;57064;52.046;4.800;2022-07-21T06:25:02;40.35;;;19.98;;
69789;SDS011;57064;52.046;4.800;2022-07-21T06:27:29;38.72;;;18.75;;
69789;SDS011;57064;52.046;4.800;2022-07-21T06:29:56;40.10;;;21.00;;
69789;SDS011;57064;52.046;4.800;2022-07-21T06:32:24;45.33;;;19.90;;
69789;SDS011;57064;52.046;4.800;2022-07-21T06:34:51;40.75;;;20.85;;
69789;SDS011;57064;52.046;4.800;2022-07-21T06:37:17;38.78;;;19.83;;
69789;SDS011;57064;52.046;4.800;2022-07-21T06:39:43;41.03;;;20.20;;
69789;SDS011;57064;52.046;4.800;2022-07-21T06:42:09;49.45;;;20.65;;
69789;SDS011;57064;52.046;4.800;2022-07-21T06:44:35;39.75;;;20.88;;
69789;SDS011;57064;52.046;4.800;2022-07-21T06:47:01;45.20;;;21.80;;
69789;SDS011;57064;52.046;4.800;2022-07-21T06:49:30;47.95;;;21.52;;
69789;SDS011;57064;52.046;4.800;2022-07-21T06:51:56;49.58;;;22.05;;
69789;SDS011;57064;52.046;4.800;2022-07-21T06:54:22;44.88;;;22.52;;
69789;SDS011;57064;52.046;4.800;2022-07-21T06:56:48;47.63;;;22.83;;
69789;SDS011;57064;52.046;4.800;2022-07-21T06:59:15;48.97;;;22.05;;
69789;SDS011;57064;52.046;4.800;2022-07-21T07:01:41;49.45;;;22.48;;
69789;SDS011;57064;52.046;4.800;2022-07-21T07:04:07;45.63;;;23.63;;
69789;SDS011;57064;52.046;4.800;2022-07-21T07:06:33;43.08;;;22.90;;
69789;SDS011;57064;52.046;4.800;2022-07-21T07:08:59;35.55;;;17.75;;
69789;SDS011;57064;52.046;4.800;2022-07-21T07:11:25;25.88;;;14.82;;
69789;SDS011;57064;52.046;4.800;2022-07-21T07:13:51;28.92;;;15.85;;
69789;SDS011;57064;52.046;4.800;2022-07-21T07:16:17;38.47;;;20.23;;
69789;SDS011;57064;52.046;4.800;2022-07-21T07:18:44;43.60;;;21.20;;
69789;SDS011;57064;52.046;4.800;2022-07-21T07:21:09;46.08;;;20.98;;
69789;SDS011;57064;52.046;4.800;2022-07-21T07:23:36;39.50;;;19.27;;
69789;SDS011;57064;52.046;4.800;2022-07-21T07:26:02;26.40;;;14.00;;
69789;SDS011;57064;52.046;4.800;2022-07-21T07:28:28;23.17;;;11.60;;
69789;SDS011;57064;52.046;4.800;2022-07-21T07:30:54;25.15;;;14.65;;
69789;SDS011;57064;52.046;4.800;2022-07-21T07:33:20;31.20;;;14.27;;
69789;SDS011;57064;52.046;4.800;2022-07-21T07:35:46;23.10;;;12.15;;
69789;SDS011;57064;52.046;4.800;2022-07-21T07:38:13;24.10;;;12.65;;
69789;SDS011;57064;52.046;4.800;2022-07-21T07:40:40;21.30;;;12.35;;
69789;SDS011;57064;52.046;4.800;2022-07-21T07:43:06;18.77;;;10.73;;
69789;SDS011;57064;52.046;4.800;2022-07-21T07:45:36;19.02;;;10.23;;
69789;SDS011;57064;52.046;4.800;2022-07-21T07:48:02;15.95;;;9.57;;
69789;SDS011;57064;52.046;4.800;2022-07-21T07:50:29;17.38;;;9.93;;
69789;SDS011;57064;52.046;4.800;2022-07-21T07:52:55;16.70;;;8.73;;
69789;SDS011;57064;52.046;4.800;2022-07-21T07:55:21;13.43;;;8.63;;
69789;SDS011;57064;52.046;4.800;2022-07-21T07:57:47;14.20;;;9.07;;
69789;SDS011;57064;52.046;4.800;2022-07-21T08:00:14;14.93;;;8.95;;
69789;SDS011;57064;52.046;4.800;2022-07-21T08:02:42;17.05;;;10.20;;
69789;SDS011;57064;52.046;4.800;2022-07-21T08:05:08;13.20;;;9.10;;
69789;SDS011;57064;52.046;4.800;2022-07-21T08:07:35;14.30;;;9.35;;
69789;SDS011;57064;52.046;4.800;2022-07-21T08:10:04;13.38;;;8.98;;
69789;SDS011;57064;52.046;4.800;2022-07-21T08:12:34;13.57;;;9.32;;
69789;SDS011;57064;52.046;4.800;2022-07-21T08:15:02;14.38;;;8.73;;
69789;SDS011;57064;52.046;4.800;2022-07-21T08:17:29;17.20;;;9.90;;
69789;SDS011;57064;52.046;4.800;2022-07-21T08:19:55;16.58;;;10.00;;
69789;SDS011;57064;52.046;4.800;2022-07-21T08:22:21;13.77;;;10.52;;
69789;SDS011;57064;52.046;4.800;2022-07-21T08:24:47;15.30;;;10.75;;
69789;SDS011;57064;52.046;4.800;2022-07-21T08:27:13;17.98;;;12.05;;
69789;SDS011;57064;52.046;4.800;2022-07-21T08:29:39;19.27;;;11.45;;
69789;SDS011;57064;52.046;4.800;2022-07-21T08:32:05;17.42;;;11.40;;
69789;SDS011;57064;52.046;4.800;2022-07-21T08:34:31;17.95;;;11.73;;
69789;SDS011;57064;52.046;4.800;2022-07-21T08:36:57;18.58;;;11.38;;
69789;SDS011;57064;52.046;4.800;2022-07-21T08:39:23;19.98;;;11.45;;
69789;SDS011;57064;52.046;4.800;2022-07-21T08:41:50;19.85;;;11.00;;
69789;SDS011;57064;52.046;4.800;2022-07-21T08:44:17;15.75;;;10.93;;
69789;SDS011;57064;52.046;4.800;2022-07-21T08:46:45;17.40;;;10.73;;
69789;SDS011;57064;52.046;4.800;2022-07-21T08:49:15;20.25;;;12.07;;
69789;SDS011;57064;52.046;4.800;2022-07-21T08:51:44;22.58;;;12.95;;
69789;SDS011;57064;52.046;4.800;2022-07-21T08:54:10;19.23;;;13.25;;
69789;SDS011;57064;52.046;4.800;2022-07-21T08:56:36;24.83;;;13.93;;
69789;SDS011;57064;52.046;4.800;2022-07-21T08:59:02;27.17;;;15.48;;
69789;SDS011;57064;52.046;4.800;2022-07-21T09:01:30;21.48;;;14.90;;
69789;SDS011;57064;52.046;4.800;2022-07-21T09:04:02;25.27;;;14.75;;
69789;SDS011;57064;52.046;4.800;2022-07-21T09:06:57;22.63;;;14.45;;
69789;SDS011;57064;52.046;4.800;2022-07-21T09:09:29;22.30;;;14.02;;
69789;SDS011;57064;52.046;4.800;2022-07-21T09:11:57;26.80;;;16.13;;
69789;SDS011;57064;52.046;4.800;2022-07-21T09:14:25;28.20;;;15.25;;
69789;SDS011;57064;52.046;4.800;2022-07-21T09:16:55;25.58;;;15.70;;
69789;SDS011;57064;52.046;4.800;2022-07-21T09:21:53;25.35;;;15.38;;
69789;SDS011;57064;52.046;4.800;2022-07-21T09:24:26;25.15;;;15.57;;
69789;SDS011;57064;52.046;4.800;2022-07-21T09:27:13;35.47;;;16.92;;
69789;SDS011;57064;52.046;4.800;2022-07-21T09:32:22;25.25;;;15.75;;
69789;SDS011;57064;52.046;4.800;2022-07-21T09:37:30;28.60;;;14.57;;
69789;SDS011;57064;52.046;4.800;2022-07-21T09:39:58;27.05;;;12.88;;
69789;SDS011;57064;52.046;4.800;2022-07-21T09:42:29;23.02;;;13.32;;
69789;SDS011;57064;52.046;4.800;2022-07-21T09:44:59;21.13;;;12.88;;
69789;SDS011;57064;52.046;4.800;2022-07-21T09:47:28;26.20;;;14.27;;
69789;SDS011;57064;52.046;4.800;2022-07-21T09:49:56;24.48;;;14.50;;
69789;SDS011;57064;52.046;4.800;2022-07-21T09:54:54;26.88;;;13.23;;
69789;SDS011;57064;52.046;4.800;2022-07-21T09:57:25;25.92;;;14.63;;
69789;SDS011;57064;52.046;4.800;2022-07-21T09:59:52;25.35;;;14.50;;
69789;SDS011;57064;52.046;4.800;2022-07-21T10:02:26;32.00;;;15.43;;
69789;SDS011;57064;52.046;4.800;2022-07-21T10:07:37;25.38;;;13.68;;
69789;SDS011;57064;52.046;4.800;2022-07-21T10:10:05;22.23;;;13.10;;
69789;SDS011;57064;52.046;4.800;2022-07-21T10:12:32;21.48;;;12.63;;
69789;SDS011;57064;52.046;4.800;2022-07-21T10:14:59;16.27;;;10.02;;
69789;SDS011;57064;52.046;4.800;2022-07-21T10:17:27;13.93;;;9.05;;
69789;SDS011;57064;52.046;4.800;2022-07-21T10:20:11;13.15;;;9.23;;
69789;SDS011;57064;52.046;4.800;2022-07-21T10:25:09;21.08;;;13.80;;
69789;SDS011;57064;52.046;4.800;2022-07-21T10:27:35;19.45;;;11.57;;
69789;SDS011;57064;52.046;4.800;2022-07-21T10:30:03;18.23;;;11.43;;
69789;SDS011;57064;52.046;4.800;2022-07-21T10:32:31;21.13;;;12.10;;
69789;SDS011;57064;52.046;4.800;2022-07-21T10:35:00;14.88;;;9.48;;
69789;SDS011;57064;52.046;4.800;2022-07-21T10:37:47;11.10;;;8.10;;
69789;SDS011;57064;52.046;4.800;2022-07-21T10:45:33;6.05;;;4.30;;
69789;SDS011;57064;52.046;4.800;2022-07-21T10:48:01;7.38;;;4.93;;
69789;SDS011;57064;52.046;4.800;2022-07-21T10:55:35;6.55;;;3.83;;
69789;SDS011;57064;52.046;4.800;2022-07-21T11:03:40;5.93;;;4.40;;
69789;SDS011;57064;52.046;4.800;2022-07-21T11:06:26;6.07;;;4.38;;
69789;SDS011;57064;52.046;4.800;2022-07-21T11:11:30;6.28;;;4.28;;
69789;SDS011;57064;52.046;4.800;2022-07-21T11:14:05;7.78;;;3.90;;
69789;SDS011;57064;52.046;4.800;2022-07-21T11:19:48;6.95;;;3.67;;
69789;SDS011;57064;52.046;4.800;2022-07-21T11:24:49;5.43;;;2.78;;
69789;SDS011;57064;52.046;4.800;2022-07-21T11:27:17;4.68;;;2.88;;
69789;SDS011;57064;52.046;4.800;2022-07-21T11:29:45;5.95;;;2.90;;
69789;SDS011;57064;52.046;4.800;2022-07-21T11:32:12;5.15;;;2.70;;
69789;SDS011;57064;52.046;4.800;2022-07-21T11:34:59;6.43;;;2.35;;
69789;SDS011;57064;52.046;4.800;2022-07-21T11:37:37;6.47;;;2.40;;
69789;SDS011;57064;52.046;4.800;2022-07-21T11:40:09;4.25;;;2.10;;
69789;SDS011;57064;52.046;4.800;2022-07-21T11:42:44;5.53;;;2.40;;
69789;SDS011;57064;52.046;4.800;2022-07-21T11:45:12;3.20;;;2.38;;
69789;SDS011;57064;52.046;4.800;2022-07-21T11:47:39;4.82;;;2.40;;
69789;SDS011;57064;52.046;4.800;2022-07-21T11:50:06;6.75;;;2.70;;
69789;SDS011;57064;52.046;4.800;2022-07-21T11:52:35;5.95;;;2.70;;
69789;SDS011;57064;52.046;4.800;2022-07-21T11:55:04;6.30;;;2.47;;
69789;SDS011;57064;52.046;4.800;2022-07-21T11:57:31;5.95;;;2.58;;
69789;SDS011;57064;52.046;4.800;2022-07-21T11:59:58;5.57;;;2.75;;
69789;SDS011;57064;52.046;4.800;2022-07-21T12:02:28;5.50;;;2.70;;
69789;SDS011;57064;52.046;4.800;2022-07-21T12:07:23;11.95;;;3.70;;
69789;SDS011;57064;52.046;4.800;2022-07-21T12:12:33;7.05;;;3.75;;
69789;SDS011;57064;52.046;4.800;2022-07-21T12:17:41;11.35;;;3.50;;
69789;SDS011;57064;52.046;4.800;2022-07-21T12:20:10;5.85;;;3.50;;
69789;SDS011;57064;52.046;4.800;2022-07-21T12:22:38;9.73;;;3.67;;
69789;SDS011;57064;52.046;4.800;2022-07-21T12:27:36;5.40;;;2.95;;
69789;SDS011;57064;52.046;4.800;2022-07-21T12:30:05;4.15;;;2.40;;
69789;SDS011;57064;52.046;4.800;2022-07-21T12:32:46;4.38;;;2.63;;
69789;SDS011;57064;52.046;4.800;2022-07-21T12:35:20;6.22;;;2.80;;
69789;SDS011;57064;52.046;4.800;2022-07-21T12:38:07;6.25;;;2.38;;
69789;SDS011;57064;52.046;4.800;2022-07-21T12:40:36;3.80;;;1.80;;
69789;SDS011;57064;52.046;4.800;2022-07-21T12:45:46;3.72;;;2.00;;
69789;SDS011;57064;52.046;4.800;2022-07-21T12:48:16;5.05;;;1.30;;
69789;SDS011;57064;52.046;4.800;2022-07-21T12:50:57;4.38;;;1.75;;
69789;SDS011;57064;52.046;4.800;2022-07-21T12:53:28;3.88;;;1.85;;
69789;SDS011;57064;52.046;4.800;2022-07-21T12:55:55;2.88;;;1.50;;
69789;SDS011;57064;52.046;4.800;2022-07-21T12:58:21;7.68;;;1.95;;
69789;SDS011;57064;52.046;4.800;2022-07-21T13:00:48;4.55;;;1.83;;
69789;SDS011;57064;52.046;4.800;2022-07-21T13:03:14;3.80;;;1.60;;
69789;SDS011;57064;52.046;4.800;2022-07-21T13:05:40;5.20;;;1.92;;
69789;SDS011;57064;52.046;4.800;2022-07-21T13:08:06;7.60;;;2.60;;
69789;SDS011;57064;52.046;4.800;2022-07-21T13:10:32;4.65;;;2.90;;
69789;SDS011;57064;52.046;4.800;2022-07-21T13:12:58;8.15;;;3.30;;
69789;SDS011;57064;52.046;4.800;2022-07-21T13:15:25;8.98;;;3.00;;
69789;SDS011;57064;52.046;4.800;2022-07-21T13:17:51;8.55;;;3.10;;
69789;SDS011;57064;52.046;4.800;2022-07-21T13:20:17;10.43;;;3.10;;
69789;SDS011;57064;52.046;4.800;2022-07-21T13:22:43;14.32;;;4.60;;
69789;SDS011;57064;52.046;4.800;2022-07-21T13:25:10;13.88;;;3.63;;
69789;SDS011;57064;52.046;4.800;2022-07-21T13:27:36;8.48;;;3.08;;
69789;SDS011;57064;52.046;4.800;2022-07-21T13:30:04;15.35;;;3.88;;
69789;SDS011;57064;52.046;4.800;2022-07-21T13:32:32;8.77;;;3.80;;
69789;SDS011;57064;52.046;4.800;2022-07-21T13:34:59;15.45;;;3.58;;
69789;SDS011;57064;52.046;4.800;2022-07-21T13:37:27;9.70;;;4.20;;
69789;SDS011;57064;52.046;4.800;2022-07-21T13:39:54;16.42;;;4.05;;
69789;SDS011;57064;52.046;4.800;2022-07-21T13:42:20;15.68;;;4.13;;
69789;SDS011;57064;52.046;4.800;2022-07-21T13:44:46;15.00;;;3.80;;
69789;SDS011;57064;52.046;4.800;2022-07-21T13:47:12;11.98;;;2.85;;
69789;SDS011;57064;52.046;4.800;2022-07-21T13:49:39;8.73;;;2.60;;
69789;SDS011;57064;52.046;4.800;2022-07-21T13:52:05;9.05;;;2.55;;
69789;SDS011;57064;52.046;4.800;2022-07-21T13:54:31;10.73;;;3.13;;
69789;SDS011;57064;52.046;4.800;2022-07-21T13:56:58;11.98;;;2.42;;
69789;SDS011;57064;52.046;4.800;2022-07-21T13:59:25;8.32;;;2.58;;
69789;SDS011;57064;52.046;4.800;2022-07-21T14:01:51;7.80;;;2.50;;
69789;SDS011;57064;52.046;4.800;2022-07-21T14:04:17;9.48;;;2.90;;
69789;SDS011;57064;52.046;4.800;2022-07-21T14:06:44;11.63;;;2.17;;
69789;SDS011;57064;52.046;4.800;2022-07-21T14:09:12;7.57;;;2.70;;
69789;SDS011;57064;52.046;4.800;2022-07-21T14:11:40;8.38;;;2.67;;
69789;SDS011;57064;52.046;4.800;2022-07-21T14:14:06;8.07;;;1.85;;
69789;SDS011;57064;52.046;4.800;2022-07-21T14:16:32;7.72;;;1.60;;
69789;SDS011;57064;52.046;4.800;2022-07-21T14:18:58;10.25;;;2.53;;
69789;SDS011;57064;52.046;4.800;2022-07-21T14:21:25;7.72;;;1.70;;
69789;SDS011;57064;52.046;4.800;2022-07-21T14:23:51;6.07;;;1.20;;
69789;SDS011;57064;52.046;4.800;2022-07-21T14:26:37;6.65;;;1.33;;
69789;SDS011;57064;52.046;4.800;2022-07-21T14:29:04;5.28;;;1.60;;
69789;SDS011;57064;52.046;4.800;2022-07-21T14:31:31;7.18;;;1.38;;
69789;SDS011;57064;52.046;4.800;2022-07-21T14:33:57;5.68;;;1.35;;
69789;SDS011;57064;52.046;4.800;2022-07-21T14:36:23;5.40;;;1.50;;
69789;SDS011;57064;52.046;4.800;2022-07-21T14:38:49;2.88;;;0.60;;
69789;SDS011;57064;52.046;4.800;2022-07-21T14:41:15;5.13;;;1.13;;
69789;SDS011;57064;52.046;4.800;2022-07-21T14:43:41;9.05;;;1.20;;
69789;SDS011;57064;52.046;4.800;2022-07-21T14:46:07;6.13;;;1.17;;
69789;SDS011;57064;52.046;4.800;2022-07-21T14:48:35;4.53;;;0.93;;
69789;SDS011;57064;52.046;4.800;2022-07-21T14:51:01;6.60;;;0.93;;
69789;SDS011;57064;52.046;4.800;2022-07-21T14:53:27;8.32;;;1.48;;
69789;SDS011;57064;52.046;4.800;2022-07-21T14:55:53;4.03;;;0.93;;
69789;SDS011;57064;52.046;4.800;2022-07-21T14:58:19;6.38;;;1.17;;
69789;SDS011;57064;52.046;4.800;2022-07-21T15:00:46;6.47;;;1.00;;
69789;SDS011;57064;52.046;4.800;2022-07-21T15:03:12;4.45;;;1.50;;
69789;SDS011;57064;52.046;4.800;2022-07-21T15:05:39;4.93;;;0.93;;
69789;SDS011;57064;52.046;4.800;2022-07-21T15:08:05;10.10;;;1.60;;
69789;SDS011;57064;52.046;4.800;2022-07-21T15:10:31;3.38;;;1.10;;
69789;SDS011;57064;52.046;4.800;2022-07-21T15:12:57;5.43;;;1.30;;
69789;SDS011;57064;52.046;4.800;2022-07-21T15:15:23;7.50;;;1.58;;
69789;SDS011;57064;52.046;4.800;2022-07-21T15:17:49;7.20;;;1.42;;
69789;SDS011;57064;52.046;4.800;2022-07-21T15:20:15;7.50;;;1.45;;
69789;SDS011;57064;52.046;4.800;2022-07-21T15:22:42;5.72;;;1.48;;
69789;SDS011;57064;52.046;4.800;2022-07-21T15:25:08;6.32;;;1.73;;
69789;SDS011;57064;52.046;4.800;2022-07-21T15:27:39;13.88;;;2.47;;
69789;SDS011;57064;52.046;4.800;2022-07-21T15:30:08;7.45;;;1.88;;